createdAt,value
2023-01-20T00:01:48.996Z,100.00
2023-01-20T00:04:19.348Z,100.00
2023-01-20T00:06:46.369Z,100.00
2023-01-20T00:09:17.913Z,100.00
2023-01-20T00:11:45.698Z,100.00
2023-01-20T00:14:12.960Z,100.00
2023-01-20T00:16:39.813Z,100.00
2023-01-20T00:19:06.841Z,100.00
2023-01-20T00:21:35.258Z,100.00
2023-01-20T00:24:02.154Z,100.00
2023-01-20T00:26:29.061Z,100.00
2023-01-20T00:28:57.898Z,100.00
2023-01-20T00:31:29.950Z,100.00
2023-01-20T00:33:59.559Z,100.00
2023-01-20T00:36:28.515Z,100.00
2023-01-20T00:38:55.434Z,100.00
2023-01-20T00:41:22.311Z,100.00
2023-01-20T00:43:49.296Z,100.00
2023-01-20T00:46:16.764Z,100.00
2023-01-20T00:48:43.661Z,100.00
2023-01-20T00:51:11.064Z,100.00
2023-01-20T00:53:37.987Z,100.00
2023-01-20T00:56:05.666Z,100.00
2023-01-20T00:58:32.520Z,100.00
2023-01-20T01:00:59.792Z,100.00
2023-01-20T01:03:30.257Z,100.00
2023-01-20T01:06:10.228Z,100.00
2023-01-20T01:08:37.312Z,100.00
2023-01-20T01:11:04.876Z,100.00
2023-01-20T01:13:32.320Z,100.00
2023-01-20T01:15:59.622Z,100.00
2023-01-20T01:18:28.931Z,100.00
2023-01-20T01:20:55.953Z,100.00
2023-01-20T01:23:22.924Z,100.00
2023-01-20T01:25:49.734Z,100.00
2023-01-20T01:28:16.652Z,100.00
2023-01-20T01:30:44.179Z,100.00
2023-01-20T01:33:11.004Z,100.00
2023-01-20T01:35:37.844Z,100.00
2023-01-20T01:38:04.666Z,100.00
2023-01-20T01:40:31.445Z,100.00
2023-01-20T01:42:59.471Z,100.00
2023-01-20T01:45:28.790Z,100.00
2023-01-20T01:48:13.640Z,100.00
2023-01-20T01:50:40.449Z,100.00
2023-01-20T01:53:08.751Z,100.00
2023-01-20T01:55:39.782Z,100.00
2023-01-20T01:58:09.000Z,100.00
2023-01-20T02:00:36.354Z,100.00
2023-01-20T02:03:04.208Z,100.00
2023-01-20T02:05:31.515Z,100.00
2023-01-20T02:07:59.971Z,100.00
2023-01-20T02:10:27.081Z,100.00
2023-01-20T02:12:54.766Z,100.00
2023-01-20T02:15:27.558Z,100.00
2023-01-20T02:18:12.644Z,100.00
2023-01-20T02:21:13.723Z,100.00
2023-01-20T02:24:07.772Z,100.00
2023-01-20T02:27:06.837Z,100.00
2023-01-20T02:30:12.169Z,100.00
2023-01-20T02:32:56.836Z,100.00
2023-01-20T02:35:30.033Z,100.00
2023-01-20T02:38:49.976Z,100.00
2023-01-20T02:41:23.679Z,100.00
2023-01-20T02:44:16.645Z,100.00
2023-01-20T02:46:57.905Z,100.00
2023-01-20T02:49:30.493Z,100.00
2023-01-20T02:52:03.606Z,100.00
2023-01-20T02:54:34.832Z,100.00
2023-01-20T02:57:04.305Z,100.00
2023-01-20T02:59:36.559Z,100.00
2023-01-20T03:02:09.154Z,100.00
2023-01-20T03:04:45.141Z,100.00
2023-01-20T03:07:14.539Z,100.00
2023-01-20T03:09:47.682Z,100.00
2023-01-20T03:12:22.475Z,100.00
2023-01-20T03:14:52.121Z,100.00
2023-01-20T03:17:23.082Z,100.00
2023-01-20T03:19:50.161Z,100.00
2023-01-20T03:22:17.267Z,100.00
2023-01-20T03:24:46.453Z,100.00
2023-01-20T03:27:14.854Z,100.00
2023-01-20T03:29:41.781Z,100.00
2023-01-20T03:32:11.041Z,100.00
2023-01-20T03:34:40.683Z,100.00
2023-01-20T03:37:08.493Z,100.00
2023-01-20T03:39:39.851Z,100.00
2023-01-20T03:42:22.147Z,100.00
2023-01-20T03:45:05.995Z,100.00
2023-01-20T03:47:57.357Z,100.00
2023-01-20T03:50:24.201Z,100.00
2023-01-20T03:52:53.903Z,100.00
2023-01-20T03:55:32.313Z,100.00
2023-01-20T03:58:04.977Z,100.00
2023-01-20T04:00:35.748Z,100.00
2023-01-20T04:03:08.738Z,100.00
2023-01-20T04:05:37.616Z,100.00
2023-01-20T04:08:08.900Z,100.00
2023-01-20T04:10:39.322Z,100.00
2023-01-20T04:13:06.253Z,100.00
2023-01-20T04:15:44.643Z,100.00
2023-01-20T04:18:12.610Z,100.00
2023-01-20T04:20:40.342Z,100.00
2023-01-20T04:23:14.397Z,100.00
2023-01-20T04:25:41.487Z,100.00
2023-01-20T04:28:08.296Z,100.00
2023-01-20T04:30:35.273Z,100.00
2023-01-20T04:33:02.135Z,100.00
2023-01-20T04:35:28.966Z,100.00
2023-01-20T04:37:55.962Z,100.00
2023-01-20T04:40:22.941Z,100.00
2023-01-20T04:42:49.765Z,100.00
2023-01-20T04:45:17.582Z,100.00
2023-01-20T04:47:44.990Z,100.00
2023-01-20T04:50:14.173Z,100.00
2023-01-20T04:52:41.323Z,100.00
2023-01-20T04:55:08.890Z,100.00
2023-01-20T04:57:35.687Z,100.00
2023-01-20T05:00:02.732Z,100.00
2023-01-20T05:02:29.673Z,100.00
2023-01-20T05:04:56.581Z,100.00
2023-01-20T05:07:23.607Z,100.00
2023-01-20T05:09:50.487Z,100.00
2023-01-20T05:12:17.268Z,100.00
2023-01-20T05:14:44.179Z,100.00
2023-01-20T05:17:11.047Z,100.00
2023-01-20T05:19:38.133Z,100.00
2023-01-20T05:22:04.938Z,100.00
2023-01-20T05:24:36.612Z,100.00
2023-01-20T05:27:06.347Z,100.00
2023-01-20T05:29:35.425Z,100.00
2023-01-20T05:32:02.239Z,100.00
2023-01-20T05:34:29.047Z,100.00
2023-01-20T05:36:55.953Z,100.00
2023-01-20T05:39:23.079Z,100.00
2023-01-20T05:41:50.064Z,100.00
2023-01-20T05:44:17.078Z,100.00
2023-01-20T05:46:43.956Z,100.00
2023-01-20T05:49:12.757Z,100.00
2023-01-20T05:51:39.702Z,100.00
2023-01-20T05:54:06.616Z,100.00
2023-01-20T05:56:33.511Z,100.00
2023-01-20T05:59:00.411Z,100.00
2023-01-20T06:01:27.787Z,100.00
2023-01-20T06:03:54.835Z,100.00
2023-01-20T06:06:21.829Z,100.00
2023-01-20T06:08:49.751Z,100.00
2023-01-20T06:11:18.181Z,100.00
2023-01-20T06:13:48.285Z,100.00
2023-01-20T06:16:16.867Z,100.00
2023-01-20T06:18:43.882Z,100.00
2023-01-20T06:21:10.896Z,100.00
2023-01-20T06:23:37.827Z,100.00
2023-01-20T06:26:11.777Z,100.00
2023-01-20T06:28:38.709Z,100.00
2023-01-20T06:31:08.732Z,100.00
2023-01-20T06:33:36.177Z,100.00
2023-01-20T06:36:04.559Z,100.00
2023-01-20T06:38:33.632Z,100.00
2023-01-20T06:41:03.204Z,100.00
2023-01-20T06:43:35.265Z,100.00
2023-01-20T06:46:04.734Z,100.00
2023-01-20T06:48:32.456Z,100.00
2023-01-20T06:51:04.549Z,100.00
2023-01-20T06:53:31.559Z,100.00
2023-01-20T06:56:00.835Z,100.00
2023-01-20T06:58:30.542Z,100.00
2023-01-20T07:00:58.515Z,100.00
2023-01-20T07:03:25.544Z,100.00
2023-01-20T07:05:59.170Z,100.00
2023-01-20T07:08:26.261Z,100.00
2023-01-20T07:10:53.101Z,100.00
2023-01-20T07:13:20.302Z,100.00
2023-01-20T07:15:47.156Z,100.00
2023-01-20T07:18:14.186Z,100.00
2023-01-20T07:20:41.068Z,100.00
2023-01-20T07:23:08.108Z,100.00
2023-01-20T07:25:35.042Z,100.00
2023-01-20T07:28:01.921Z,100.00
2023-01-20T07:30:28.921Z,100.00
2023-01-20T07:32:56.055Z,100.00
2023-01-20T07:35:24.258Z,100.00
2023-01-20T07:37:51.140Z,100.00
2023-01-20T07:40:18.203Z,100.00
2023-01-20T07:42:45.241Z,100.00
2023-01-20T07:45:12.203Z,100.00
2023-01-20T07:47:39.448Z,100.00
2023-01-20T07:50:06.547Z,100.00
2023-01-20T07:52:33.603Z,100.00
2023-01-20T07:55:00.552Z,100.00
2023-01-20T07:57:30.367Z,100.00
2023-01-20T07:59:57.251Z,100.00
2023-01-20T08:02:24.255Z,100.00
2023-01-20T08:04:51.113Z,100.00
2023-01-20T08:07:19.021Z,100.00
2023-01-20T08:09:46.307Z,100.00
2023-01-20T08:12:13.193Z,100.00
2023-01-20T08:14:40.166Z,99.98
2023-01-20T08:17:07.062Z,100.00
2023-01-20T08:19:33.929Z,100.00
2023-01-20T08:22:00.817Z,96.94
2023-01-20T08:24:27.620Z,97.94
2023-01-20T08:26:54.583Z,100.00
2023-01-20T08:29:21.427Z,99.37
2023-01-20T08:31:48.583Z,100.00
2023-01-20T08:34:15.567Z,100.00
2023-01-20T08:36:42.693Z,100.00
2023-01-20T08:39:18.717Z,100.00
2023-01-20T08:41:46.703Z,100.00
2023-01-20T08:44:14.961Z,100.00
2023-01-20T08:46:42.189Z,100.00
2023-01-20T08:49:11.483Z,100.00
2023-01-20T08:51:38.934Z,100.00
2023-01-20T08:54:06.019Z,100.00
2023-01-20T08:56:34.187Z,100.00
2023-01-20T08:59:02.375Z,100.00
2023-01-20T09:01:32.319Z,100.00
2023-01-20T09:04:05.790Z,100.00
2023-01-20T09:06:42.467Z,100.00
2023-01-20T09:09:10.140Z,100.00
2023-01-20T09:11:37.275Z,100.00
2023-01-20T09:14:04.234Z,100.00
2023-01-20T09:16:31.029Z,100.00
2023-01-20T09:18:57.869Z,100.00
2023-01-20T09:21:24.753Z,100.00
2023-01-20T09:23:52.420Z,100.00
2023-01-20T09:26:34.218Z,100.00
2023-01-20T09:29:09.759Z,100.00
2023-01-20T09:31:45.566Z,100.00
2023-01-20T09:34:21.638Z,100.00
2023-01-20T09:36:52.034Z,100.00
2023-01-20T09:39:37.765Z,100.00
2023-01-20T09:42:50.199Z,100.00
2023-01-20T09:45:33.714Z,100.00
2023-01-20T09:48:41.141Z,100.00
2023-01-20T09:51:34.751Z,100.00
2023-01-20T09:54:08.829Z,100.00
2023-01-20T09:56:43.906Z,100.00
2023-01-20T09:59:16.014Z,100.00
2023-01-20T10:01:51.456Z,100.00
2023-01-20T10:04:25.621Z,100.00
2023-01-20T10:07:30.869Z,100.00
2023-01-20T10:10:10.700Z,100.00
2023-01-20T10:12:56.074Z,100.00
2023-01-20T10:15:27.989Z,100.00
2023-01-20T10:18:09.449Z,100.00
2023-01-20T10:20:56.837Z,100.00
2023-01-20T10:23:29.676Z,100.00
2023-01-20T10:26:07.638Z,100.00
2023-01-20T10:28:55.742Z,100.00
2023-01-20T10:31:27.912Z,100.00
2023-01-20T10:34:07.331Z,100.00
2023-01-20T10:36:35.177Z,100.00
2023-01-20T10:39:17.949Z,94.21
2023-01-20T10:41:50.700Z,93.22
2023-01-20T10:44:17.708Z,93.25
2023-01-20T10:46:59.637Z,90.51
2023-01-20T10:49:52.901Z,91.92
2023-01-20T10:52:25.560Z,92.06
2023-01-20T10:55:24.535Z,93.90
2023-01-20T10:58:02.175Z,93.33
2023-01-20T11:00:31.770Z,97.39
2023-01-20T11:03:00.905Z,98.30
2023-01-20T11:05:37.422Z,99.06
2023-01-20T11:08:15.480Z,100.00
2023-01-20T11:10:42.557Z,100.00
2023-01-20T11:13:11.205Z,100.00
2023-01-20T11:15:43.515Z,100.00
2023-01-20T11:18:16.372Z,100.00
2023-01-20T11:20:47.981Z,100.00
2023-01-20T11:23:34.415Z,100.00
2023-01-20T11:26:10.174Z,100.00
2023-01-20T11:28:46.484Z,100.00
2023-01-20T11:31:14.162Z,100.00
2023-01-20T11:33:54.015Z,100.00
2023-01-20T11:36:24.105Z,100.00
2023-01-20T11:38:52.491Z,100.00
2023-01-20T11:41:27.232Z,100.00
2023-01-20T11:43:56.513Z,100.00
2023-01-20T11:46:30.439Z,100.00
2023-01-20T11:49:22.974Z,100.00
2023-01-20T11:51:55.897Z,100.00
2023-01-20T11:54:30.365Z,100.00
2023-01-20T11:57:04.791Z,100.00
2023-01-20T11:59:35.139Z,100.00
2023-01-20T12:02:20.519Z,100.00
2023-01-20T12:05:10.785Z,100.00
2023-01-20T12:07:49.099Z,100.00
2023-01-20T12:10:30.401Z,100.00
2023-01-20T12:13:06.003Z,100.00
2023-01-20T12:15:37.871Z,100.00
2023-01-20T12:18:35.464Z,100.00
2023-01-20T12:21:10.538Z,100.00
2023-01-20T12:23:46.483Z,100.00
2023-01-20T12:26:15.719Z,100.00
2023-01-20T12:28:55.041Z,100.00
2023-01-20T12:31:25.864Z,100.00
2023-01-20T12:33:58.186Z,100.00
2023-01-20T12:36:43.223Z,100.00
2023-01-20T12:39:40.501Z,100.00
2023-01-20T12:42:34.259Z,100.00
2023-01-20T12:45:13.005Z,100.00
2023-01-20T12:48:00.137Z,100.00
2023-01-20T12:50:35.666Z,100.00
2023-01-20T12:53:38.993Z,100.00
2023-01-20T12:56:05.907Z,100.00
2023-01-20T12:58:46.351Z,100.00
2023-01-20T13:01:22.332Z,100.00
2023-01-20T13:04:26.638Z,100.00
2023-01-20T13:07:02.025Z,100.00
2023-01-20T13:09:40.650Z,100.00
2023-01-20T13:12:31.964Z,100.00
2023-01-20T13:15:26.950Z,100.00
2023-01-20T13:18:11.735Z,100.00
2023-01-20T13:20:45.658Z,100.00
2023-01-20T13:23:34.701Z,100.00
2023-01-20T13:26:05.038Z,100.00
2023-01-20T13:28:32.138Z,100.00
2023-01-20T13:31:00.888Z,100.00
2023-01-20T13:33:39.964Z,100.00
2023-01-20T13:36:23.797Z,100.00
2023-01-20T13:39:11.916Z,100.00
2023-01-20T13:41:52.663Z,100.00
2023-01-20T13:44:46.104Z,100.00
2023-01-20T13:47:47.851Z,100.00
2023-01-20T13:50:42.580Z,100.00
2023-01-20T13:53:21.699Z,100.00
2023-01-20T13:55:48.616Z,100.00
2023-01-20T13:58:16.097Z,100.00
2023-01-20T14:00:44.046Z,100.00
2023-01-20T14:03:19.740Z,100.00
2023-01-20T14:05:53.573Z,100.00
2023-01-20T14:08:22.047Z,100.00
2023-01-20T14:10:49.124Z,100.00
2023-01-20T14:13:24.578Z,100.00
2023-01-20T14:15:56.008Z,100.00
2023-01-20T14:18:26.070Z,100.00
2023-01-20T14:21:18.060Z,100.00
2023-01-20T14:23:48.216Z,100.00
2023-01-20T14:26:22.411Z,100.00
2023-01-20T14:28:52.389Z,100.00
2023-01-20T14:31:20.820Z,100.00
2023-01-20T14:33:58.305Z,100.00
2023-01-20T14:36:26.692Z,100.00
2023-01-20T14:38:58.481Z,100.00
2023-01-20T14:41:29.003Z,100.00
2023-01-20T14:43:56.028Z,100.00
2023-01-20T14:46:24.892Z,100.00
2023-01-20T14:48:54.074Z,100.00
2023-01-20T14:51:22.588Z,100.00
2023-01-20T14:54:27.799Z,100.00
2023-01-20T14:56:54.852Z,100.00
2023-01-20T14:59:22.303Z,100.00
2023-01-20T15:02:01.040Z,100.00
2023-01-20T15:04:35.885Z,100.00
2023-01-20T15:07:03.416Z,100.00
2023-01-20T15:09:35.033Z,100.00
2023-01-20T15:12:46.956Z,100.00
2023-01-20T15:15:36.275Z,100.00
2023-01-20T15:18:15.735Z,100.00
2023-01-20T15:20:47.193Z,100.00
2023-01-20T15:23:19.494Z,100.00
2023-01-20T15:25:47.483Z,100.00
2023-01-20T15:28:26.303Z,100.00
2023-01-20T15:30:55.064Z,100.00
2023-01-20T15:33:24.075Z,100.00
2023-01-20T15:35:55.935Z,100.00
2023-01-20T15:38:22.953Z,100.00
2023-01-20T15:40:50.220Z,100.00
2023-01-20T15:43:18.285Z,100.00
2023-01-20T15:45:45.687Z,100.00
2023-01-20T15:48:22.402Z,100.00
2023-01-20T15:50:49.261Z,100.00
2023-01-20T15:53:16.328Z,100.00
2023-01-20T15:55:50.488Z,100.00
2023-01-20T15:58:21.932Z,100.00
2023-01-20T16:00:48.909Z,100.00
2023-01-20T16:03:15.782Z,100.00
2023-01-20T16:05:42.679Z,100.00
2023-01-20T16:08:15.894Z,100.00
2023-01-20T16:10:42.936Z,100.00
2023-01-20T16:13:12.802Z,100.00
2023-01-20T16:15:42.438Z,100.00
2023-01-20T16:18:14.760Z,100.00
2023-01-20T16:20:43.308Z,100.00
2023-01-20T16:23:10.232Z,100.00
2023-01-20T16:25:38.076Z,100.00
2023-01-20T16:28:14.826Z,100.00
2023-01-20T16:30:42.018Z,100.00
2023-01-20T16:33:17.566Z,100.00
2023-01-20T16:35:44.583Z,100.00
2023-01-20T16:38:16.853Z,100.00
2023-01-20T16:41:17.651Z,100.00
2023-01-20T16:43:44.520Z,100.00
2023-01-20T16:46:28.555Z,100.00
2023-01-20T16:49:05.197Z,100.00
2023-01-20T16:51:32.792Z,100.00
2023-01-20T16:53:59.994Z,100.00
2023-01-20T16:56:28.995Z,100.00
2023-01-20T16:58:57.974Z,100.00
2023-01-20T17:01:26.234Z,100.00
2023-01-20T17:03:58.801Z,100.00
2023-01-20T17:06:31.142Z,100.00
2023-01-20T17:09:00.121Z,100.00
2023-01-20T17:11:30.056Z,100.00
2023-01-20T17:13:57.510Z,100.00
2023-01-20T17:16:27.974Z,100.00
2023-01-20T17:18:56.804Z,100.00
2023-01-20T17:21:24.601Z,100.00
2023-01-20T17:23:53.230Z,100.00
2023-01-20T17:26:21.349Z,100.00
2023-01-20T17:28:48.396Z,100.00
2023-01-20T17:31:15.354Z,100.00
2023-01-20T17:33:46.642Z,100.00
2023-01-20T17:36:13.579Z,100.00
2023-01-20T17:38:40.524Z,100.00
2023-01-20T17:41:08.636Z,100.00
2023-01-20T17:43:41.307Z,100.00
2023-01-20T17:46:16.910Z,100.00
2023-01-20T17:48:44.574Z,100.00
2023-01-20T17:51:14.343Z,100.00
2023-01-20T17:53:41.703Z,100.00
2023-01-20T17:56:12.687Z,100.00
2023-01-20T17:58:42.172Z,100.00
2023-01-20T18:01:11.134Z,100.00
2023-01-20T18:03:40.012Z,100.00
2023-01-20T18:06:08.905Z,100.00
2023-01-20T18:08:36.340Z,100.00
2023-01-20T18:11:11.775Z,100.00
2023-01-20T18:13:39.225Z,100.00
2023-01-20T18:16:11.837Z,100.00
2023-01-20T18:18:39.893Z,100.00
2023-01-20T18:21:14.547Z,100.00
2023-01-20T18:23:42.580Z,100.00
2023-01-20T18:26:11.706Z,100.00
2023-01-20T18:28:38.593Z,100.00
2023-01-20T18:31:10.850Z,100.00
2023-01-20T18:33:44.413Z,100.00
2023-01-20T18:36:14.985Z,100.00
2023-01-20T18:38:45.264Z,100.00
2023-01-20T18:41:15.148Z,100.00
2023-01-20T18:43:42.177Z,100.00
2023-01-20T18:46:09.660Z,100.00
2023-01-20T18:48:40.556Z,100.00
2023-01-20T18:51:15.072Z,100.00
2023-01-20T18:53:45.068Z,100.00
2023-01-20T18:56:16.043Z,100.00
2023-01-20T18:58:49.837Z,100.00
2023-01-20T19:01:19.804Z,100.00
2023-01-20T19:03:48.495Z,100.00
2023-01-20T19:06:18.153Z,100.00
2023-01-20T19:08:46.174Z,100.00
2023-01-20T19:11:17.752Z,100.00
2023-01-20T19:13:46.458Z,100.00
2023-01-20T19:16:13.409Z,100.00
2023-01-20T19:18:41.659Z,100.00
2023-01-20T19:21:15.532Z,100.00
2023-01-20T19:23:43.523Z,100.00
2023-01-20T19:26:12.598Z,100.00
2023-01-20T19:28:40.755Z,100.00
2023-01-20T19:31:09.791Z,100.00
2023-01-20T19:33:37.999Z,100.00
2023-01-20T19:36:11.475Z,100.00
2023-01-20T19:38:38.626Z,100.00
2023-01-20T19:41:09.770Z,100.00
2023-01-20T19:43:37.472Z,100.00
2023-01-20T19:46:06.518Z,100.00
2023-01-20T19:48:33.618Z,100.00
2023-01-20T19:51:04.698Z,100.00
2023-01-20T19:53:32.241Z,100.00
2023-01-20T19:56:06.366Z,100.00
2023-01-20T19:58:33.843Z,100.00
2023-01-20T20:01:11.368Z,100.00
2023-01-20T20:03:39.815Z,100.00
2023-01-20T20:06:08.211Z,100.00
2023-01-20T20:08:37.755Z,100.00
2023-01-20T20:11:04.749Z,100.00
2023-01-20T20:13:31.637Z,100.00
2023-01-20T20:16:05.722Z,100.00
2023-01-20T20:18:32.968Z,100.00
2023-01-20T20:21:00.136Z,100.00
2023-01-20T20:23:27.191Z,100.00
2023-01-20T20:25:57.961Z,100.00
2023-01-20T20:28:28.873Z,100.00
2023-01-20T20:30:55.948Z,100.00
2023-01-20T20:33:24.563Z,100.00
2023-01-20T20:35:52.047Z,100.00
2023-01-20T20:38:18.892Z,100.00
2023-01-20T20:40:46.098Z,100.00
2023-01-20T20:43:13.101Z,100.00
2023-01-20T20:45:39.954Z,100.00
2023-01-20T20:48:06.845Z,100.00
2023-01-20T20:50:34.119Z,100.00
2023-01-20T20:53:01.007Z,100.00
2023-01-20T20:55:29.395Z,100.00
2023-01-20T20:57:56.692Z,100.00
2023-01-20T21:00:28.202Z,100.00
2023-01-20T21:02:55.764Z,100.00
2023-01-20T21:05:22.629Z,100.00
2023-01-20T21:07:49.476Z,100.00
2023-01-20T21:10:17.718Z,100.00
2023-01-20T21:12:45.036Z,100.00
2023-01-20T21:15:12.161Z,100.00
2023-01-20T21:17:39.495Z,100.00
2023-01-20T21:20:08.045Z,100.00
2023-01-20T21:22:35.169Z,100.00
2023-01-20T21:25:02.130Z,100.00
2023-01-20T21:27:31.214Z,100.00
2023-01-20T21:29:58.150Z,100.00
2023-01-20T21:32:25.310Z,100.00
2023-01-20T21:34:53.103Z,100.00
2023-01-20T21:37:20.702Z,100.00
2023-01-20T21:39:47.510Z,100.00
2023-01-20T21:42:14.380Z,100.00
2023-01-20T21:44:43.306Z,100.00
2023-01-20T21:47:10.925Z,100.00
2023-01-20T21:49:56.437Z,100.00
2023-01-20T21:52:43.137Z,100.00
2023-01-20T21:55:17.416Z,100.00
2023-01-20T21:57:44.607Z,100.00
2023-01-20T22:00:13.281Z,100.00
2023-01-20T22:02:43.563Z,100.00
2023-01-20T22:05:11.238Z,100.00
2023-01-20T22:07:38.350Z,100.00
2023-01-20T22:10:05.847Z,100.00
2023-01-20T22:12:34.784Z,100.00
2023-01-20T22:15:03.598Z,100.00
2023-01-20T22:17:31.094Z,100.00
2023-01-20T22:19:57.978Z,100.00
2023-01-20T22:22:24.836Z,100.00
2023-01-20T22:24:53.461Z,100.00
2023-01-20T22:27:20.444Z,100.00
2023-01-20T22:29:47.461Z,100.00
2023-01-20T22:32:14.399Z,100.00
2023-01-20T22:34:42.351Z,100.00
2023-01-20T22:37:09.520Z,100.00
2023-01-20T22:39:36.530Z,100.00
2023-01-20T22:42:03.458Z,100.00
2023-01-20T22:44:30.359Z,100.00
2023-01-20T22:46:57.244Z,100.00
2023-01-20T22:49:27.094Z,100.00
2023-01-20T22:52:01.466Z,100.00
2023-01-20T22:54:28.413Z,100.00
2023-01-20T22:56:55.239Z,100.00
2023-01-20T22:59:24.772Z,100.00
2023-01-20T23:01:51.684Z,100.00
2023-01-20T23:04:18.533Z,100.00
2023-01-20T23:06:45.476Z,100.00
2023-01-20T23:09:14.555Z,100.00
2023-01-20T23:11:41.912Z,100.00
2023-01-20T23:14:12.947Z,100.00
2023-01-20T23:16:41.305Z,100.00
2023-01-20T23:19:08.562Z,100.00
2023-01-20T23:21:36.040Z,100.00
2023-01-20T23:24:03.006Z,100.00
2023-01-20T23:26:30.925Z,100.00
2023-01-20T23:28:58.069Z,100.00
2023-01-20T23:31:25.853Z,100.00
2023-01-20T23:33:53.780Z,100.00
2023-01-20T23:36:25.776Z,100.00
2023-01-20T23:38:56.912Z,100.00
2023-01-20T23:41:25.399Z,100.00
2023-01-20T23:43:52.254Z,100.00
2023-01-20T23:46:19.195Z,100.00
2023-01-20T23:48:47.116Z,100.00
2023-01-20T23:51:14.365Z,100.00
2023-01-20T23:53:41.688Z,100.00
2023-01-20T23:56:12.998Z,100.00
2023-01-20T23:58:40.252Z,100.00
